Time;durP1;ratioP1;P1;durP2;ratioP2;P2;SDS_P1;SDS_P2;PMS_P1;PMS_P2;Temp;Humidity;BMP_temperature;BMP_pressure;BME280_temperature;BME280_humidity;BME280_pressure;Samples;Min_cycle;Max_cycle;Signal;HPM_P1;HPM_P2
2022/09/05 00:00:25;;;;;;;2.50;2.30;;;;;;;14.53;100.00;96851.22;5031551;28;102691;-62
2022/09/05 00:03:13;;;;;;;2.47;2.27;;;;;;;14.52;100.00;96863.00;5030398;28;101917;-62
2022/09/05 00:06:05;;;;;;;2.50;2.13;;;;;;;14.58;100.00;96845.88;5031592;27;102849;-62
2022/09/05 00:08:46;;;;;;;2.23;2.13;;;;;;;14.58;100.00;96844.03;5015537;28;105783;-62
2022/09/05 00:11:21;;;;;;;2.43;2.23;;;;;;;14.52;100.00;96844.25;5030158;28;101911;-62
2022/09/05 00:14:02;;;;;;;2.57;2.37;;;;;;;14.54;100.00;96844.78;5031934;28;102375;-62
2022/09/05 00:16:55;;;;;;;3.20;2.50;;;;;;;14.36;100.00;96847.97;5033070;28;105415;-62
2022/09/05 00:19:33;;;;;;;2.60;2.43;;;;;;;14.36;100.00;96837.25;5030003;28;105474;-62
2022/09/05 00:22:17;;;;;;;3.13;2.67;;;;;;;14.47;100.00;96847.75;5030831;28;102660;-62
2022/09/05 00:24:57;;;;;;;2.80;2.60;;;;;;;14.50;100.00;96833.81;5029114;28;102236;-62
2022/09/05 00:27:32;;;;;;;3.33;2.70;;;;;;;14.55;100.00;96841.06;5031531;28;102371;-62
2022/09/05 00:30:06;;;;;;;2.67;2.47;;;;;;;14.41;100.00;96845.31;5030802;28;104226;-62
2022/09/05 00:32:46;;;;;;;3.43;2.70;;;;;;;14.43;100.00;96849.31;5029684;28;101937;-62
2022/09/05 00:35:32;;;;;;;2.80;2.60;;;;;;;14.37;100.00;96845.03;5029944;28;105198;-62
2022/09/05 00:38:12;;;;;;;3.23;3.03;;;;;;;14.37;100.00;96839.69;5029376;28;103719;-62
2022/09/05 00:40:45;;;;;;;2.60;2.40;;;;;;;14.38;100.00;96832.47;5034966;28;101808;-62
2022/09/05 00:43:16;;;;;;;2.53;2.33;;;;;;;14.35;100.00;96838.31;5029422;28;105908;-62
2022/09/05 00:45:48;;;;;;;3.23;2.70;;;;;;;14.35;100.00;96841.81;5029765;28;101808;-62
2022/09/05 00:48:24;;;;;;;2.70;2.50;;;;;;;14.17;100.00;96841.44;5031380;28;102418;-62
2022/09/05 00:51:03;;;;;;;2.70;2.50;;;;;;;14.20;100.00;96838.28;5030349;28;104181;-62
2022/09/05 00:53:41;;;;;;;3.07;2.87;;;;;;;14.22;100.00;96833.47;5031356;28;101738;-62
2022/09/05 00:56:26;;;;;;;2.30;2.20;;;;;;;14.23;100.00;96830.53;5029408;28;105197;-62
2022/09/05 00:59:22;;;;;;;3.20;2.90;;;;;;;14.24;100.00;96825.97;5030521;28;102595;-62
2022/09/05 01:01:56;;;;;;;2.70;2.50;;;;;;;14.26;100.00;96838.03;5028529;28;101855;-62
2022/09/05 01:04:32;;;;;;;3.50;2.70;;;;;;;14.26;100.00;96829.19;5032381;28;105100;-62
2022/09/05 01:07:25;;;;;;;3.00;2.80;;;;;;;14.20;100.00;96832.91;5030737;27;102052;-62
2022/09/05 01:10:04;;;;;;;2.97;2.67;;;;;;;14.15;100.00;96835.53;5030857;27;102210;-62
2022/09/05 01:12:50;;;;;;;3.30;2.70;;;;;;;14.17;100.00;96836.88;5028938;28;105602;-62
2022/09/05 01:15:23;;;;;;;3.67;3.20;;;;;;;14.22;100.00;96830.81;5030503;28;101757;-62
2022/09/05 01:18:19;;;;;;;3.17;2.93;;;;;;;14.21;100.00;96829.16;5030504;28;102363;-62
2022/09/05 01:21:14;;;;;;;3.10;2.53;;;;;;;13.99;100.00;96821.31;5028619;28;104290;-62
2022/09/05 01:23:55;;;;;;;2.80;2.60;;;;;;;13.98;100.00;96824.25;5017654;28;101934;-62
2022/09/05 01:26:44;;;;;;;3.37;2.50;;;;;;;13.94;100.00;96820.47;5031929;28;105356;-62
2022/09/05 01:29:39;;;;;;;2.30;2.20;;;;;;;13.93;100.00;96827.69;5030621;27;102101;-62
2022/09/05 01:32:18;;;;;;;2.60;2.40;;;;;;;13.93;100.00;96829.56;5030836;28;102298;-62
2022/09/05 01:34:57;;;;;;;3.33;2.63;;;;;;;13.83;100.00;96822.31;5029854;28;103054;-62
2022/09/05 01:37:34;;;;;;;2.97;2.73;;;;;;;13.73;100.00;96822.25;5030661;27;101726;-62
2022/09/05 01:40:14;;;;;;;3.40;3.10;;;;;;;13.82;100.00;96825.22;5030584;27;102289;-62
2022/09/05 01:42:55;;;;;;;3.30;2.60;;;;;;;13.79;100.00;96829.22;5029903;27;102674;-62
2022/09/05 01:45:32;;;;;;;3.20;2.67;;;;;;;13.79;100.00;96809.72;5030265;27;101920;-62
2022/09/05 01:48:04;;;;;;;2.63;2.43;;;;;;;13.79;100.00;96815.84;5030670;28;101648;-62
2022/09/05 01:50:45;;;;;;;3.50;2.60;;;;;;;13.85;100.00;96808.69;5031662;28;105459;-62
2022/09/05 01:53:27;;;;;;;3.27;2.30;;;;;;;13.73;100.00;96808.88;5030156;28;102971;-62
2022/09/05 01:56:11;;;;;;;3.07;2.77;;;;;;;13.63;100.00;96806.16;5028260;28;105371;-62
2022/09/05 01:58:54;;;;;;;2.57;2.47;;;;;;;13.54;100.00;96801.56;5030252;28;101711;-62
2022/09/05 02:01:32;;;;;;;3.10;2.90;;;;;;;13.40;100.00;96811.09;5030377;28;102857;-62
2022/09/05 02:04:14;;;;;;;2.77;2.57;;;;;;;13.49;100.00;96815.69;5029778;28;102558;-62
2022/09/05 02:06:54;;;;;;;4.83;2.90;;;;;;;13.57;100.00;96825.09;5027910;28;101903;-62
2022/09/05 02:09:39;;;;;;;3.50;3.20;;;;;;;13.66;100.00;96823.53;5030274;27;102238;-62
2022/09/05 02:12:21;;;;;;;3.80;3.50;;;;;;;13.73;100.00;96824.13;5028015;28;106793;-62
2022/09/05 02:14:57;;;;;;;3.80;3.50;;;;;;;13.78;100.00;96824.13;5032152;28;102069;-62
2022/09/05 02:17:35;;;;;;;4.20;3.80;;;;;;;13.80;100.00;96830.81;5027774;28;104582;-62
2022/09/05 02:20:14;;;;;;;3.50;3.20;;;;;;;13.79;100.00;96826.56;5028365;28;102285;-62
2022/09/05 02:22:43;;;;;;;3.20;2.90;;;;;;;13.78;100.00;96824.94;5029746;28;102576;-62
2022/09/05 02:25:17;;;;;;;3.43;3.23;;;;;;;13.81;100.00;96823.63;5029331;28;102646;-62
2022/09/05 02:27:50;;;;;;;3.13;2.93;;;;;;;13.77;100.00;96833.22;5028405;28;101875;-62
2022/09/05 02:30:20;;;;;;;3.10;2.90;;;;;;;13.72;100.00;96826.00;5029846;28;102338;-62
2022/09/05 02:33:11;;;;;;;3.30;3.10;;;;;;;13.73;100.00;96829.47;5027688;28;105591;-62
2022/09/05 02:35:47;;;;;;;3.37;3.07;;;;;;;13.64;100.00;96823.00;5029992;28;102160;-62
2022/09/05 02:38:21;;;;;;;3.77;3.47;;;;;;;13.63;100.00;96837.44;5032675;28;103111;-62
2022/09/05 02:40:56;;;;;;;3.07;2.87;;;;;;;13.62;100.00;96839.28;5029765;28;102163;-62
2022/09/05 02:43:34;;;;;;;3.70;3.40;;;;;;;13.64;100.00;96831.03;5029611;28;102707;-62
2022/09/05 02:46:07;;;;;;;3.53;3.23;;;;;;;13.50;100.00;96836.00;5029340;28;101909;-62
2022/09/05 02:48:48;;;;;;;3.20;3.00;;;;;;;13.52;100.00;96841.09;5032775;28;101752;-62
2022/09/05 02:51:20;;;;;;;2.93;2.73;;;;;;;13.27;100.00;96839.06;5031497;28;105764;-62
2022/09/05 02:53:54;;;;;;;3.83;2.80;;;;;;;13.23;100.00;96840.63;5030929;28;105552;-62
2022/09/05 02:56:44;;;;;;;4.13;3.20;;;;;;;13.17;100.00;96844.31;5031675;28;101952;-62
2022/09/05 02:59:24;;;;;;;3.03;2.73;;;;;;;13.21;100.00;96852.63;5033128;28;101738;-62
2022/09/05 03:02:01;;;;;;;2.80;2.70;;;;;;;13.25;100.00;96851.06;5035898;28;102457;-62
2022/09/05 03:04:44;;;;;;;4.47;3.50;;;;;;;13.28;100.00;96851.34;5031439;28;105305;-62
2022/09/05 03:07:43;;;;;;;3.47;3.17;;;;;;;13.29;100.00;96842.28;5029960;28;105720;-62
2022/09/05 03:10:27;;;;;;;2.83;2.63;;;;;;;13.28;100.00;96851.34;5032992;28;101772;-62
2022/09/05 03:13:29;;;;;;;3.20;3.00;;;;;;;13.32;100.00;96846.28;5032936;28;102896;-62
2022/09/05 03:16:23;;;;;;;3.20;2.90;;;;;;;13.32;100.00;96855.13;5032227;28;102614;-62
2022/09/05 03:19:31;;;;;;;3.00;2.80;;;;;;;13.34;100.00;96849.50;5032843;28;101920;-62
2022/09/05 03:22:30;;;;;;;3.87;3.50;;;;;;;13.28;100.00;96854.03;5032713;28;102280;-62
2022/09/05 03:25:36;;;;;;;3.13;2.93;;;;;;;13.15;100.00;96845.63;5032175;28;102549;-62
2022/09/05 03:28:35;;;;;;;3.33;2.90;;;;;;;13.14;100.00;96844.03;5034427;28;101863;-62
2022/09/05 03:31:24;;;;;;;3.00;2.80;;;;;;;13.06;100.00;96842.63;5019020;27;103096;-62
2022/09/05 03:34:12;;;;;;;3.20;2.70;;;;;;;12.82;100.00;96838.63;5032543;28;101680;-62
2022/09/05 03:37:25;;;;;;;3.17;2.87;;;;;;;12.94;100.00;96844.63;5018665;27;102338;-62
2022/09/05 03:40:26;;;;;;;3.33;2.80;;;;;;;12.97;100.00;96846.03;5031702;28;103168;-62
2022/09/05 03:43:13;;;;;;;3.87;2.90;;;;;;;12.93;100.00;96839.53;5030860;28;101939;-62
2022/09/05 03:46:12;;;;;;;4.10;2.90;;;;;;;12.82;100.00;96840.50;5030785;28;105664;-62
2022/09/05 03:49:12;;;;;;;3.20;3.00;;;;;;;12.84;100.00;96849.88;5030215;28;106454;-62
2022/09/05 03:51:50;;;;;;;3.27;2.97;;;;;;;12.86;100.00;96847.75;4981400;27;101924;-62
2022/09/05 03:54:41;;;;;;;3.57;3.27;;;;;;;12.77;100.00;96849.28;5030040;28;105482;-62
2022/09/05 03:57:38;;;;;;;3.00;2.80;;;;;;;12.85;100.00;96856.00;5030711;28;101933;-62
2022/09/05 04:00:08;;;;;;;3.40;2.90;;;;;;;12.75;100.00;96858.59;5030846;27;102590;-62
2022/09/05 04:02:43;;;;;;;3.00;2.80;;;;;;;12.79;100.00;96871.19;5031320;27;102579;-62
2022/09/05 04:05:16;;;;;;;3.47;2.97;;;;;;;12.81;100.00;96873.59;5031907;28;101705;-62
2022/09/05 04:07:47;;;;;;;3.00;2.70;;;;;;;12.74;100.00;96860.44;5031826;27;102294;-62
2022/09/05 04:10:29;;;;;;;5.13;3.27;;;;;;;12.69;100.00;96862.25;5031394;28;102608;-62
2022/09/05 04:13:04;;;;;;;3.23;3.00;;;;;;;12.65;100.00;96856.63;5032240;27;101701;-62
2022/09/05 04:16:19;;;;;;;2.83;2.63;;;;;;;12.64;100.00;96852.34;5034912;27;102798;-62
2022/09/05 04:19:16;;;;;;;4.10;2.80;;;;;;;12.44;100.00;96857.47;5032081;28;102006;-62
2022/09/05 04:21:52;;;;;;;3.40;3.10;;;;;;;12.57;100.00;96853.59;5030617;28;105772;-62
2022/09/05 04:24:30;;;;;;;4.03;2.97;;;;;;;12.58;100.00;96857.88;5031476;28;102659;-62
2022/09/05 04:27:35;;;;;;;3.00;2.70;;;;;;;12.46;100.00;96857.22;5038229;27;101805;-62
2022/09/05 04:30:27;;;;;;;2.90;2.70;;;;;;;12.39;100.00;96864.59;5011782;28;102490;-62
2022/09/05 04:33:01;;;;;;;5.00;3.13;;;;;;;12.42;100.00;96861.47;5009459;28;104360;-62
2022/09/05 04:35:38;;;;;;;3.60;3.40;;;;;;;12.38;100.00;96871.00;5011510;28;102161;-62
2022/09/05 04:38:12;;;;;;;6.23;3.70;;;;;;;12.40;100.00;96880.38;5011204;28;101928;-62
2022/09/05 04:40:42;;;;;;;3.70;3.47;;;;;;;12.50;100.00;96879.66;5012334;28;105510;-62
2022/09/05 04:43:15;;;;;;;3.90;3.30;;;;;;;12.51;100.00;96879.44;5043317;27;104927;-62
2022/09/05 04:45:50;;;;;;;3.30;3.10;;;;;;;12.57;100.00;96880.28;5010724;28;102697;-62
2022/09/05 04:48:22;;;;;;;3.10;2.90;;;;;;;12.63;100.00;96873.94;5009664;28;101839;-62
2022/09/05 04:51:04;;;;;;;3.77;3.30;;;;;;;12.69;100.00;96864.91;5011094;28;102902;-62
2022/09/05 04:53:39;;;;;;;3.83;3.17;;;;;;;12.61;100.00;96876.88;5010655;28;102557;-62
2022/09/05 04:56:13;;;;;;;3.93;3.13;;;;;;;12.50;100.00;96872.47;5011023;28;101780;-62
2022/09/05 04:58:43;;;;;;;6.30;3.97;;;;;;;12.43;100.00;96869.19;5011240;28;102777;-62
2022/09/05 05:01:17;;;;;;;4.90;4.23;;;;;;;12.58;100.00;96876.53;5008857;28;105857;-62
2022/09/05 05:03:45;;;;;;;6.83;4.63;;;;;;;12.70;100.00;96879.91;5014398;28;102210;-62
2022/09/05 05:06:23;;;;;;;5.80;5.20;;;;;;;12.75;100.00;96882.63;5009564;28;103206;-62
2022/09/05 05:08:58;;;;;;;5.73;5.13;;;;;;;12.81;100.00;96876.28;5009299;28;101847;-62
2022/09/05 05:11:41;;;;;;;5.30;4.80;;;;;;;12.90;100.00;96875.56;5010397;28;102543;-62
2022/09/05 05:14:13;;;;;;;6.97;5.90;;;;;;;12.97;100.00;96883.41;5010269;28;103018;-62
2022/09/05 05:16:47;;;;;;;9.53;7.20;;;;;;;13.08;100.00;96899.25;5010400;28;101789;-62
2022/09/05 05:19:20;;;;;;;6.70;6.03;;;;;;;13.18;100.00;96895.84;5010706;28;102514;-62
2022/09/05 05:21:52;;;;;;;8.33;6.97;;;;;;;13.28;100.00;96893.28;5010000;28;102591;-62
2022/09/05 05:24:24;;;;;;;7.57;6.87;;;;;;;13.30;100.00;96881.28;5010863;28;101989;-62
2022/09/05 05:26:57;;;;;;;6.70;6.10;;;;;;;13.45;100.00;96877.91;5013143;28;104344;-62
2022/09/05 05:29:30;;;;;;;7.30;6.57;;;;;;;13.54;100.00;96881.72;5010668;28;101798;-62
2022/09/05 05:32:01;;;;;;;6.90;6.23;;;;;;;13.63;100.00;96888.22;5010395;28;102337;-62
2022/09/05 05:34:32;;;;;;;7.40;6.57;;;;;;;13.71;100.00;96895.72;5009570;28;102563;-62
2022/09/05 05:37:05;;;;;;;7.27;6.67;;;;;;;13.77;100.00;96900.03;5010536;28;101806;-62
2022/09/05 05:39:38;;;;;;;8.07;7.30;;;;;;;13.85;100.00;96900.38;5010201;28;102432;-62
2022/09/05 05:42:15;;;;;;;8.27;7.47;;;;;;;13.92;100.00;96895.63;5008394;28;105387;-62
2022/09/05 05:44:48;;;;;;;7.80;7.00;;;;;;;14.13;100.00;96886.66;5008597;28;101884;-62
2022/09/05 05:47:21;;;;;;;6.47;5.87;;;;;;;14.30;100.00;96894.50;5008800;28;105741;-62
2022/09/05 05:50:01;;;;;;;4.40;4.10;;;;;;;14.35;100.00;96898.00;5012853;28;102458;-62
2022/09/05 05:52:51;;;;;;;6.70;4.40;;;;;;;14.38;100.00;96899.34;5008795;28;105662;-62
2022/09/05 05:55:43;;;;;;;4.63;4.30;;;;;;;14.48;100.00;96904.72;5007421;28;102759;-62
2022/09/05 05:58:32;;;;;;;4.53;4.13;;;;;;;14.65;100.00;96898.09;4980211;28;102114;-62
2022/09/05 06:01:41;;;;;;;4.40;4.10;;;;;;;14.82;100.00;96900.56;5010184;28;102854;-62
2022/09/05 06:04:44;;;;;;;4.13;3.83;;;;;;;15.06;100.00;96885.59;5040346;27;105446;-62
2022/09/05 06:07:22;;;;;;;4.30;4.00;;;;;;;15.07;100.00;96887.22;5009388;28;101830;-62
2022/09/05 06:10:13;;;;;;;4.27;3.90;;;;;;;15.00;100.00;96892.03;5008450;28;105254;-62
2022/09/05 06:13:20;;;;;;;4.47;4.17;;;;;;;15.21;100.00;96902.50;5012853;28;102852;-61
2022/09/05 06:16:19;;;;;;;4.57;4.27;;;;;;;15.26;100.00;96902.50;5009733;28;102859;-61
2022/09/05 06:19:31;;;;;;;5.07;4.77;;;;;;;15.43;100.00;96910.31;5007375;28;105430;-61
2022/09/05 06:22:26;;;;;;;5.80;5.40;;;;;;;15.54;100.00;96919.97;5010416;28;101709;-61
2022/09/05 06:25:34;;;;;;;5.70;5.20;;;;;;;15.66;100.00;96923.19;5013454;28;102502;-60
2022/09/05 06:28:14;;;;;;;5.57;5.07;;;;;;;15.88;100.00;96921.00;4996911;28;102817;-62
2022/09/05 06:30:49;;;;;;;5.83;5.33;;;;;;;16.06;100.00;96917.75;5013424;28;102101;-62
2022/09/05 06:33:31;;;;;;;6.83;5.43;;;;;;;16.23;100.00;96907.50;5013409;28;102351;-62
2022/09/05 06:36:13;;;;;;;5.40;5.00;;;;;;;16.42;100.00;96913.94;5011065;28;105560;-62
2022/09/05 06:39:14;;;;;;;5.23;4.80;;;;;;;16.62;100.00;96914.66;5014952;28;102029;-62
2022/09/05 06:42:00;;;;;;;5.90;5.30;;;;;;;16.68;100.00;96920.81;5012401;28;102727;-62
2022/09/05 06:44:39;;;;;;;5.60;5.00;;;;;;;16.88;100.00;96923.38;5011759;28;101972;-62
2022/09/05 06:47:10;;;;;;;6.20;4.70;;;;;;;17.20;100.00;96924.53;5012975;28;102243;-62
2022/09/05 06:49:54;;;;;;;5.17;4.33;;;;;;;17.28;100.00;96920.47;5012428;28;102642;-62
2022/09/05 06:53:07;;;;;;;4.57;4.10;;;;;;;17.65;100.00;96915.38;5012754;28;101819;-62
2022/09/05 06:56:09;;;;;;;5.27;3.70;;;;;;;17.64;100.00;96917.25;5013078;28;102468;-62
2022/09/05 06:59:24;;;;;;;5.00;3.60;;;;;;;17.64;100.00;96924.50;5012087;27;102506;-62
2022/09/05 07:01:58;;;;;;;6.17;3.27;;;;;;;17.89;100.00;96917.03;5012691;28;101784;-62
2022/09/05 07:04:34;;;;;;;3.73;3.43;;;;;;;17.91;100.00;96908.66;5015742;28;102886;-62
2022/09/05 07:07:12;;;;;;;6.47;3.97;;;;;;;17.83;100.00;96909.28;5012489;28;101940;-62
2022/09/05 07:09:54;;;;;;;4.53;4.13;;;;;;;18.00;100.00;96920.44;5011354;28;105289;-62
2022/09/05 07:12:26;;;;;;;6.17;4.00;;;;;;;17.97;100.00;96915.59;5011840;28;102556;-62
2022/09/05 07:15:00;;;;;;;4.40;3.90;;;;;;;17.94;100.00;96913.50;5010882;28;101934;-62
2022/09/05 07:17:37;;;;;;;4.50;4.10;;;;;;;18.34;100.00;96913.91;5010635;28;106418;-62
2022/09/05 07:20:16;;;;;;;4.10;3.20;;;;;;;18.82;100.00;96909.28;5011942;28;102662;-62
2022/09/05 07:22:53;;;;;;;3.83;3.53;;;;;;;18.96;100.00;96910.97;5011042;28;102012;-62
2022/09/05 07:25:25;;;;;;;3.90;3.20;;;;;;;18.98;100.00;96914.19;5012703;28;102464;-62
2022/09/05 07:27:57;;;;;;;4.00;3.70;;;;;;;19.13;100.00;96913.16;5015089;28;103195;-62
2022/09/05 07:30:26;;;;;;;4.03;3.13;;;;;;;19.50;100.00;96907.78;5012327;28;103869;-62
2022/09/05 07:32:56;;;;;;;3.33;3.13;;;;;;;19.64;100.00;96914.03;5011140;28;102586;-62
2022/09/05 07:35:28;;;;;;;3.40;3.20;;;;;;;19.91;100.00;96911.41;5010975;28;101990;-62
2022/09/05 07:38:12;;;;;;;4.53;3.20;;;;;;;20.09;100.00;96902.47;5012292;28;102488;-62
2022/09/05 07:40:48;;;;;;;3.70;3.40;;;;;;;20.24;100.00;96910.28;5011753;28;103143;-62
2022/09/05 07:43:21;;;;;;;3.67;3.37;;;;;;;20.10;100.00;96910.28;5010729;28;101841;-62
2022/09/05 07:46:05;;;;;;;4.03;3.20;;;;;;;20.14;100.00;96905.06;5012233;28;102431;-62
2022/09/05 07:48:36;;;;;;;4.10;3.37;;;;;;;20.03;100.00;96892.81;5009680;28;105756;-62
2022/09/05 07:51:07;;;;;;;3.93;3.30;;;;;;;19.90;100.00;96904.41;5014229;28;102199;-62
2022/09/05 07:53:38;;;;;;;3.30;3.00;;;;;;;20.30;100.00;96903.69;5009878;28;105809;-62
2022/09/05 07:56:09;;;;;;;3.43;3.20;;;;;;;20.59;100.00;96902.31;5010449;28;101949;-62
2022/09/05 07:58:42;;;;;;;4.67;3.50;;;;;;;20.42;100.00;96902.09;5012100;28;102635;-62
2022/09/05 08:01:13;;;;;;;3.73;3.40;;;;;;;20.46;100.00;96907.72;5011193;28;102637;-62
2022/09/05 08:03:42;;;;;;;3.40;3.07;;;;;;;20.53;100.00;96902.69;5012046;28;101701;-62
2022/09/05 08:06:17;;;;;;;3.13;2.77;;;;;;;20.48;100.00;96905.53;5010044;28;104103;-62
2022/09/05 08:08:53;;;;;;;3.30;2.70;;;;;;;20.62;100.00;96900.91;5009800;28;105968;-62
2022/09/05 08:11:24;;;;;;;3.30;3.10;;;;;;;20.19;100.00;96908.50;5013525;28;102053;-62
2022/09/05 08:13:59;;;;;;;3.57;3.27;;;;;;;20.59;100.00;96907.72;5011115;28;103124;-62
2022/09/05 08:16:28;;;;;;;3.03;2.70;;;;;;;20.72;100.00;96900.69;5010143;28;101933;-62
2022/09/05 08:19:08;;;;;;;3.57;3.30;;;;;;;20.68;100.00;96899.69;5011729;28;102873;-62
2022/09/05 08:21:42;;;;;;;3.00;2.80;;;;;;;20.64;100.00;96910.31;5010904;28;102653;-62
2022/09/05 08:24:13;;;;;;;3.37;3.13;;;;;;;20.78;100.00;96904.91;5011576;28;101718;-62
2022/09/05 08:26:45;;;;;;;3.57;2.93;;;;;;;21.17;100.00;96900.56;5011275;28;102435;-63
2022/09/05 08:29:25;;;;;;;4.07;3.67;;;;;;;20.58;100.00;96905.31;5009453;28;105561;-63
2022/09/05 08:32:01;;;;;;;3.30;3.10;;;;;;;20.79;100.00;96901.09;5011611;28;101893;-62
2022/09/05 08:34:37;;;;;;;3.00;2.80;;;;;;;21.12;100.00;96906.06;5014433;28;102350;-62
2022/09/05 08:37:05;;;;;;;4.37;3.00;;;;;;;20.80;100.00;96908.09;5011371;28;101778;-62
2022/09/05 08:39:34;;;;;;;2.93;2.73;;;;;;;21.18;100.00;96912.16;5011328;28;102338;-62
2022/09/05 08:42:24;;;;;;;2.93;2.73;;;;;;;21.16;100.00;96898.97;5009363;28;105471;-62
2022/09/05 08:45:08;;;;;;;3.10;2.80;;;;;;;20.73;100.00;96905.00;5009013;28;102008;-63
2022/09/05 08:47:45;;;;;;;3.80;2.93;;;;;;;21.20;100.00;96899.91;5009414;28;105155;-62
2022/09/05 08:50:39;;;;;;;3.03;2.73;;;;;;;21.40;100.00;96901.38;5009059;28;105418;-62
2022/09/05 08:53:14;;;;;;;2.93;2.73;;;;;;;21.69;100.00;96893.66;5007350;28;101995;-63
2022/09/05 08:55:49;;;;;;;3.03;2.83;;;;;;;21.49;100.00;96896.81;5010842;28;102379;-62
2022/09/05 08:58:30;;;;;;;2.73;2.60;;;;;;;21.68;100.00;96895.56;5012502;28;105501;-63
2022/09/05 09:01:10;;;;;;;2.60;2.40;;;;;;;22.00;100.00;96889.88;5009500;28;105252;-62
2022/09/05 09:03:57;;;;;;;2.60;2.40;;;;;;;22.03;100.00;96893.88;5010176;28;102552;-63
2022/09/05 09:06:54;;;;;;;3.47;2.70;;;;;;;22.08;100.00;96886.41;5010680;28;102308;-63
2022/09/05 09:09:34;;;;;;;3.23;2.93;;;;;;;22.06;100.00;96882.44;5005091;28;102569;-63
2022/09/05 09:12:13;;;;;;;2.90;2.70;;;;;;;22.35;100.00;96883.50;5008912;28;106020;-62
2022/09/05 09:14:55;;;;;;;2.77;2.67;;;;;;;22.63;100.00;96876.78;5010875;28;101733;-62
2022/09/05 09:17:34;;;;;;;3.97;2.70;;;;;;;22.92;100.00;96881.63;5010207;28;102850;-62
2022/09/05 09:20:15;;;;;;;2.83;2.63;;;;;;;22.73;100.00;96875.69;5010084;28;102636;-62
2022/09/05 09:22:54;;;;;;;2.57;2.37;;;;;;;22.74;100.00;96871.88;5012461;28;101841;-62
2022/09/05 09:25:24;;;;;;;2.73;2.53;;;;;;;22.66;100.00;96869.94;5010254;28;102020;-63
2022/09/05 09:28:37;;;;;;;2.80;2.47;;;;;;;22.63;100.00;96857.00;5009151;28;101805;-62
2022/09/05 09:31:12;;;;;;;2.30;2.20;;;;;;;22.65;100.00;96860.19;5009071;28;103970;-63
2022/09/05 09:33:46;;;;;;;2.67;2.47;;;;;;;22.83;100.00;96851.00;5009972;28;102815;-63
2022/09/05 09:36:42;;;;;;;2.47;2.27;;;;;;;23.01;100.00;96849.91;5009018;28;101882;-63
2022/09/05 09:39:24;;;;;;;2.50;2.30;;;;;;;23.73;100.00;96856.28;5010318;28;102363;-63
2022/09/05 09:42:27;;;;;;;3.30;2.20;;;;;;;24.28;100.00;96857.91;5009631;28;103164;-62
2022/09/05 09:45:16;;;;;;;4.00;2.10;;;;;;;24.50;100.00;96851.41;5010113;28;101921;-63
2022/09/05 09:48:07;;;;;;;2.40;2.20;;;;;;;24.74;100.00;96851.63;5011395;28;105499;-63
2022/09/05 09:50:54;;;;;;;3.53;2.20;;;;;;;24.87;100.00;96842.44;5001550;28;102180;-63
2022/09/05 09:53:39;;;;;;;2.93;1.90;;;;;;;25.05;100.00;96846.63;5008583;28;105567;-62
2022/09/05 09:56:43;;;;;;;2.27;2.10;;;;;;;25.40;100.00;96848.75;5007868;28;105572;-63
2022/09/05 09:59:46;;;;;;;2.50;2.30;;;;;;;25.37;100.00;96846.72;5010358;28;101782;-63
2022/09/05 10:02:33;;;;;;;2.87;2.67;;;;;;;25.16;100.00;96850.53;5010343;28;102237;-63
2022/09/05 10:05:32;;;;;;;2.50;2.30;;;;;;;25.20;100.00;96846.84;5009410;28;102937;-63
2022/09/05 10:08:09;;;;;;;2.43;2.17;;;;;;;25.68;100.00;96840.84;5009981;28;101841;-63
2022/09/05 10:11:11;;;;;;;1.93;1.83;;;;;;;25.85;100.00;96841.47;5008580;28;105792;-63
2022/09/05 10:14:23;;;;;;;2.90;2.20;;;;;;;26.07;100.00;96838.38;5012473;28;102811;-63
2022/09/05 10:17:12;;;;;;;2.20;2.10;;;;;;;25.88;100.00;96834.53;5009976;28;102330;-63
2022/09/05 10:20:10;;;;;;;2.10;2.00;;;;;;;26.10;100.00;96832.22;5007489;28;106557;-63
2022/09/05 10:23:31;;;;;;;3.90;1.90;;;;;;;26.26;100.00;96827.69;5008242;28;102026;-63
2022/09/05 10:26:24;;;;;;;3.30;2.20;;;;;;;25.82;100.00;96830.44;4957479;28;105520;-63
2022/09/05 10:29:05;;;;;;;2.30;2.10;;;;;;;25.72;100.00;96830.88;5008942;28;104334;-62
2022/09/05 10:31:55;;;;;;;2.03;1.80;;;;;;;25.63;100.00;96830.94;5009596;28;101806;-63
2022/09/05 10:34:29;;;;;;;1.73;1.63;;;;;;;25.36;100.00;96834.25;5009762;28;102462;-63
2022/09/05 10:37:03;;;;;;;2.27;1.90;;;;;;;25.51;100.00;96824.66;5012389;28;103829;-63
2022/09/05 10:39:34;;;;;;;2.57;1.90;;;;;;;25.62;100.00;96825.84;5008243;28;104934;-63
2022/09/05 10:42:05;;;;;;;2.10;1.90;;;;;;;25.86;100.00;96831.34;5009182;28;102656;-62
2022/09/05 10:44:39;;;;;;;2.13;1.67;;;;;;;26.01;100.00;96822.56;5009779;28;101819;-63
2022/09/05 10:47:34;;;;;;;2.13;1.93;;;;;;;26.29;100.00;96824.31;5009425;28;102499;-61
2022/09/05 10:50:13;;;;;;;1.70;1.60;;;;;;;26.13;100.00;96815.19;5007362;28;105985;-61
2022/09/05 10:52:58;;;;;;;2.00;1.87;;;;;;;26.40;100.00;96821.91;5008004;28;101826;-61
2022/09/05 10:55:29;;;;;;;1.70;1.60;;;;;;;26.74;100.00;96810.56;5008266;28;105945;-61
2022/09/05 10:58:07;;;;;;;1.60;1.50;;;;;;;26.71;100.00;96814.75;5008961;28;102675;-61
2022/09/05 11:00:53;;;;;;;2.20;1.70;;;;;;;25.84;100.00;96812.59;5012845;28;101972;-60
2022/09/05 11:03:24;;;;;;;1.73;1.63;;;;;;;24.73;100.00;96809.25;5008878;28;103247;-61
2022/09/05 11:05:58;;;;;;;1.90;1.80;;;;;;;24.72;100.00;96807.63;5007411;28;101899;-61
2022/09/05 11:08:36;;;;;;;2.50;1.97;;;;;;;24.69;100.00;96798.19;5009225;28;105077;-61
2022/09/05 11:11:14;;;;;;;2.17;1.97;;;;;;;24.66;100.00;96793.44;5010402;28;105962;-61
2022/09/05 11:13:46;;;;;;;1.83;1.73;;;;;;;25.47;100.00;96796.50;5011146;28;101835;-61
2022/09/05 11:16:30;;;;;;;1.80;1.70;;;;;;;25.92;100.00;96791.88;5012584;28;102299;-61
2022/09/05 11:19:05;;;;;;;2.83;1.70;;;;;;;25.10;100.00;96794.69;5010390;28;105387;-61
2022/09/05 11:21:51;;;;;;;1.93;1.70;;;;;;;25.66;100.00;96794.06;5012549;28;101700;-61
2022/09/05 11:24:30;;;;;;;1.93;1.67;;;;;;;25.26;100.00;96790.28;5015478;28;102881;-61
2022/09/05 11:27:02;;;;;;;1.80;1.70;;;;;;;26.01;100.00;96795.28;5012671;28;101703;-61
2022/09/05 11:29:36;;;;;;;1.90;1.70;;;;;;;26.36;100.00;96788.25;5011176;28;105420;-61
2022/09/05 11:32:20;;;;;;;1.93;1.63;;;;;;;26.76;100.00;96781.78;5011845;28;102759;-61
2022/09/05 11:35:11;;;;;;;2.07;1.63;;;;;;;26.54;100.00;96784.19;5011996;28;101742;-61
2022/09/05 11:38:13;;;;;;;1.60;1.50;;;;;;;27.04;100.00;96784.56;5002167;28;105536;-61
2022/09/05 11:40:53;;;;;;;1.43;1.37;;;;;;;27.39;100.00;96778.22;5011295;28;103147;-61
2022/09/05 11:43:53;;;;;;;1.80;1.63;;;;;;;27.29;98.66;96769.75;5010658;28;101989;-61
2022/09/05 11:46:30;;;;;;;1.60;1.50;;;;;;;26.50;100.00;96772.34;5012060;28;102262;-61
2022/09/05 11:49:43;;;;;;;2.03;1.63;;;;;;;26.99;100.00;96777.44;5014888;28;103049;-61
2022/09/05 11:52:50;;;;;;;1.80;1.70;;;;;;;27.74;100.00;96779.16;5010587;28;105073;-61
2022/09/05 11:55:47;;;;;;;1.87;1.57;;;;;;;28.14;100.00;96768.13;5011071;28;104519;-61
2022/09/05 11:58:39;;;;;;;3.23;1.73;;;;;;;27.19;100.00;96779.19;5010356;28;101984;-61
2022/09/05 12:01:12;;;;;;;1.30;1.30;;;;;;;26.70;100.00;96771.47;5012088;28;102356;-61
2022/09/05 12:03:55;;;;;;;2.03;1.90;;;;;;;27.47;100.00;96765.56;5009936;28;105789;-61
2022/09/05 12:06:44;;;;;;;1.87;1.70;;;;;;;27.80;100.00;96766.06;5011348;28;101877;-61
2022/09/05 12:09:19;;;;;;;1.60;1.50;;;;;;;28.44;100.00;96766.56;5011844;28;102476;-61
2022/09/05 12:12:05;;;;;;;1.43;1.33;;;;;;;28.38;96.71;96773.44;5011394;28;102581;-61
2022/09/05 12:14:39;;;;;;;1.63;1.53;;;;;;;28.89;100.00;96767.56;5015178;28;101716;-61
2022/09/05 12:17:21;;;;;;;1.30;1.30;;;;;;;28.83;100.00;96769.00;5010875;28;102629;-61
2022/09/05 12:19:57;;;;;;;2.20;1.30;;;;;;;29.35;100.00;96769.38;5010357;28;101759;-61
2022/09/05 12:22:29;;;;;;;1.50;1.40;;;;;;;29.68;100.00;96766.09;5011274;28;102931;-61
2022/09/05 12:25:19;;;;;;;1.50;1.50;;;;;;;28.30;88.73;96760.69;5010935;28;102665;-61